Orbital elements of FENGYUN 1C DEB
| Launched | 9 May 1999 |
| Flight ended | – |
| Launch site | Taiyuan Space Center, PRC |
| Owner | People's Republic of China |
| NORAD ID | 33688 |
| Date fetched |
Epoch osculation |
Inc. [°] |
Ecc. | RA asc node [hr] |
Arg Peri. [°] |
Mean anom [°] |
Mean motion [rev/day] |
Abs. mag |
| Date fetched |
Epoch osculation |
Inc. [°] |
Ecc. | RA asc node [hr] |
Arg Peri. [°] |
Mean anom [°] |
Mean motion [rev/day] |
Abs. mag |
| 2026 May 06 17:57 | 2026 May 04 14:41:06 | 99.3526 | 0.00513 | 16.3893 | 200.5376 | 159.3753 | 14.48690 | – |
| 2026 May 05 17:57 | 2026 May 04 14:41:06 | 99.3526 | 0.00513 | 16.3893 | 200.5376 | 159.3753 | 14.48690 | – |
| 2026 May 04 17:57 | 2026 Apr 30 01:16:43 | 99.3516 | 0.00509 | 16.0530 | 213.6094 | 159.3753 | 14.48690 | – |
| 2026 May 03 17:57 | 2026 Apr 30 01:16:43 | 99.3516 | 0.00509 | 16.0530 | 213.6094 | 159.3753 | 14.48690 | – |
| 2026 May 02 17:57 | 2026 Apr 30 01:16:43 | 99.3516 | 0.00509 | 16.0530 | 213.6094 | 159.3753 | 14.48690 | – |
| 2026 May 01 17:56 | 2026 Apr 30 01:16:43 | 99.3516 | 0.00509 | 16.0530 | 213.6094 | 159.3753 | 14.48690 | – |
| 2026 Apr 30 17:56 | 2026 Apr 30 01:16:43 | 99.3516 | 0.00509 | 16.0530 | 213.6094 | 159.3753 | 14.48690 | – |
| 2026 Apr 29 17:57 | 2026 Apr 22 14:14:08 | 99.3506 | 0.00504 | 15.5027 | 235.3532 | 159.3753 | 14.48690 | – |
| 2026 Apr 28 17:56 | 2026 Apr 22 14:14:08 | 99.3506 | 0.00504 | 15.5027 | 235.3532 | 159.3753 | 14.48690 | – |
| 2026 Apr 27 17:58 | 2026 Apr 22 14:14:08 | 99.3506 | 0.00504 | 15.5027 | 235.3532 | 159.3753 | 14.48690 | – |
| 2026 Apr 26 17:58 | 2026 Apr 22 14:14:08 | 99.3506 | 0.00504 | 15.5027 | 235.3532 | 159.3753 | 14.48690 | – |
| 2026 Apr 25 17:58 | 2026 Apr 22 14:14:08 | 99.3506 | 0.00504 | 15.5027 | 235.3532 | 159.3753 | 14.48690 | – |
| 2026 Apr 24 17:59 | 2026 Apr 22 14:14:08 | 99.3506 | 0.00504 | 15.5027 | 235.3532 | 159.3753 | 14.48690 | – |
| 2026 Apr 23 17:57 | 2026 Apr 19 06:39:22 | 99.3502 | 0.00501 | 15.2581 | 245.1650 | 159.3753 | 14.48690 | – |
| 2026 Apr 22 17:57 | 2026 Apr 19 06:39:22 | 99.3502 | 0.00501 | 15.2581 | 245.1650 | 159.3753 | 14.48690 | – |
| 2026 Apr 21 17:57 | 2026 Apr 19 06:39:22 | 99.3502 | 0.00501 | 15.2581 | 245.1650 | 159.3753 | 14.48690 | – |
| 2026 Apr 20 17:57 | 2026 Apr 19 06:39:22 | 99.3502 | 0.00501 | 15.2581 | 245.1650 | 159.3753 | 14.48690 | – |
| 2026 Apr 19 17:58 | 2026 Apr 19 06:39:22 | 99.3502 | 0.00501 | 15.2581 | 245.1650 | 159.3753 | 14.48690 | – |
| 2026 Apr 18 17:56 | 2026 Apr 13 06:24:49 | 99.3493 | 0.00496 | 14.8151 | 263.2150 | 159.3753 | 14.48690 | – |
| 2026 Apr 16 17:57 | 2026 Apr 13 06:24:49 | 99.3493 | 0.00496 | 14.8151 | 263.2150 | 159.3753 | 14.48690 | – |
| 2026 Apr 14 17:57 | 2026 Apr 13 06:24:49 | 99.3493 | 0.00496 | 14.8151 | 263.2150 | 159.3753 | 14.48690 | – |
| 2026 Apr 13 17:57 | 2026 Apr 13 06:24:49 | 99.3493 | 0.00496 | 14.8151 | 263.2150 | 159.3753 | 14.48690 | – |
| 2026 Apr 12 17:57 | 2026 Apr 06 06:57:07 | 99.3490 | 0.00491 | 14.3007 | 284.0817 | 159.3753 | 14.48690 | – |
| 2026 Apr 11 17:57 | 2026 Apr 06 06:57:07 | 99.3490 | 0.00491 | 14.3007 | 284.0817 | 159.3753 | 14.48690 | – |
| 2026 Apr 10 17:58 | 2026 Apr 06 06:57:07 | 99.3490 | 0.00491 | 14.3007 | 284.0817 | 159.3753 | 14.48690 | – |
| 2026 Apr 09 18:01 | 2026 Apr 06 06:57:07 | 99.3490 | 0.00491 | 14.3007 | 284.0817 | 159.3753 | 14.48690 | – |